^^
Station Historical Data
Daily Summary for October 10, 2017 Units:  Both    English   Metric
« Previous Day
Next Day »
Daily Weekly Monthly Yearly Custom
  High: Low: Average:
Temperature: TemperatureF °F /  -17.8 °C 42.3 °F /  5.7 °C 63.6 °F /  17.6 °C
Dew Point: DewpointF °F /  -17.8 °C -27.8 °F /  -33.2 °C 9.6 °F /  -12.4 °C
Humidity: Humidity% 1% 16%
Wind Speed: WindSpeedMPHmph /  0km/h - 0.6mph /  1km/h
Wind Gust: WindSpeedGustMPHmph /  0km/h - -
Wind- - SSE
Pressure: PressureIn in /  0 hPa 29.75 in /  1007.3 hPa -
Precipitation: 0.00 in /  0 mm    
Historical Graphs
 
 
Tabular Data for October 10, 2017
Time Temperature Dew Point Pressure Wind Wind Speed Wind Gust Humidity Rainfall Rate (Hourly) solar Conditions
TemperatureF °F /  -17.8 °C DewpointF °F /  -17.8 °C PressureInin /  0hPa Calm     Humidity% HourlyPrecipInin /  0mm SolarRadiationWatts/m^2 W/m2 Conditions
00:00 60.1 °F /  15.6 °C 18.9 °F /  -7.3 °C 29.87in /  1011.4hPa Calm   7.0mph /  11.3km/h 20% 0.00in /  0mm 0.0 W/m2
00:10 59.5 °F /  15.3 °C 18.5 °F /  -7.5 °C 29.87in /  1011.4hPa Calm   5.0mph /  8km/h 20% 0.00in /  0mm 0.0 W/m2
00:15 59.4 °F /  15.2 °C 18.3 °F /  -7.6 °C 29.87in /  1011.4hPa Calm   1.0mph /  1.6km/h 20% 0.00in /  0mm 0.0 W/m2
00:21 59.0 °F /  15 °C 18.0 °F /  -7.8 °C 29.87in /  1011.4hPa Calm     20% 0.00in /  0mm 0.0 W/m2
00:26 58.6 °F /  14.8 °C 17.6 °F /  -8 °C 29.87in /  1011.4hPa Calm   5.0mph /  8km/h 20% 0.00in /  0mm 0.0 W/m2
00:31 58.5 °F /  14.7 °C 17.6 °F /  -8 °C 29.87in /  1011.4hPa Calm   8.0mph /  12.9km/h 20% 0.00in /  0mm 0.0 W/m2
00:37 58.1 °F /  14.5 °C 18.3 °F /  -7.6 °C 29.87in /  1011.4hPa Calm     21% 0.00in /  0mm 0.0 W/m2
00:42 57.7 °F /  14.3 °C 18.1 °F /  -7.7 °C 29.87in /  1011.4hPa Calm     21% 0.00in /  0mm 0.0 W/m2
00:47 57.4 °F /  14.1 °C 17.8 °F /  -7.9 °C 29.87in /  1011.4hPa Calm     21% 0.00in /  0mm 0.0 W/m2
00:53 56.8 °F /  13.8 °C 17.2 °F /  -8.2 °C 29.86in /  1011.1hPa Calm     21% 0.00in /  0mm 0.0 W/m2
00:58 56.5 °F /  13.6 °C 18.1 °F /  -7.7 °C 29.86in /  1011.1hPa Calm     22% 0.00in /  0mm 0.0 W/m2
01:03 55.9 °F /  13.3 °C 17.6 °F /  -8 °C 29.86in /  1011.1hPa Calm     22% 0.00in /  0mm 0.0 W/m2
01:09 55.6 °F /  13.1 °C 17.2 °F /  -8.2 °C 29.86in /  1011.1hPa Calm     22% 0.00in /  0mm 0.0 W/m2
01:14 55.0 °F /  12.8 °C 16.9 °F /  -8.4 °C 29.86in /  1011.1hPa Calm     22% 0.00in /  0mm 0.0 W/m2
01:19 54.7 °F /  12.6 °C 16.5 °F /  -8.6 °C 29.86in /  1011.1hPa Calm     22% 0.00in /  0mm 0.0 W/m2
01:24 54.1 °F /  12.3 °C 17.1 °F /  -8.3 °C 29.86in /  1011.1hPa Calm     23% 0.00in /  0mm 0.0 W/m2
01:29 53.8 °F /  12.1 °C 17.8 °F /  -7.9 °C 29.85in /  1010.7hPa Calm     24% 0.00in /  0mm 0.0 W/m2
01:35 53.2 °F /  11.8 °C 17.4 °F /  -8.1 °C 29.85in /  1010.7hPa Calm     24% 0.00in /  0mm 0.0 W/m2
01:40 52.9 °F /  11.6 °C 17.1 °F /  -8.3 °C 29.85in /  1010.7hPa Calm     24% 0.00in /  0mm 0.0 W/m2
01:45 52.3 °F /  11.3 °C 16.5 °F /  -8.6 °C 29.85in /  1010.7hPa Calm     24% 0.00in /  0mm 0.0 W/m2
01:51 52.0 °F /  11.1 °C 16.3 °F /  -8.7 °C 29.85in /  1010.7hPa Calm     24% 0.00in /  0mm 0.0 W/m2
01:56 51.6 °F /  10.9 °C 16.0 °F /  -8.9 °C 29.85in /  1010.7hPa Calm     24% 0.00in /  0mm 0.0 W/m2
02:01 51.4 °F /  10.8 °C 15.8 °F /  -9 °C 29.85in /  1010.7hPa Calm     24% 0.00in /  0mm 0.0 W/m2
02:07 51.3 °F /  10.7 °C 15.6 °F /  -9.1 °C 29.85in /  1010.7hPa Calm     24% 0.00in /  0mm 0.0 W/m2
02:12 51.1 °F /  10.6 °C 15.4 °F /  -9.2 °C 29.85in /  1010.7hPa Calm     24% 0.00in /  0mm 0.0 W/m2
02:17 50.7 °F /  10.4 °C 15.3 °F /  -9.3 °C 29.85in /  1010.7hPa Calm     24% 0.00in /  0mm 0.0 W/m2
02:23 50.4 °F /  10.2 °C 15.8 °F /  -9 °C 29.85in /  1010.7hPa Calm     25% 0.00in /  0mm 0.0 W/m2
02:28 50.2 °F /  10.1 °C 16.5 °F /  -8.6 °C 29.85in /  1010.7hPa Calm     26% 0.00in /  0mm 0.0 W/m2
02:33 49.8 °F /  9.9 °C 16.3 °F /  -8.7 °C 29.85in /  1010.7hPa Calm     26% 0.00in /  0mm 0.0 W/m2
02:39 49.6 °F /  9.8 °C 16.2 °F /  -8.8 °C 29.84in /  1010.4hPa Calm     26% 0.00in /  0mm 0.0 W/m2
02:49 49.1 °F /  9.5 °C 16.5 °F /  -8.6 °C 29.84in /  1010.4hPa Calm     27% 0.00in /  0mm 0.0 W/m2
02:55 48.7 °F /  9.3 °C 16.2 °F /  -8.8 °C 29.84in /  1010.4hPa Calm     27% 0.00in /  0mm 0.0 W/m2
03:00 48.6 °F /  9.2 °C 16.2 °F /  -8.8 °C 29.83in /  1010hPa Calm     27% 0.00in /  0mm 0.0 W/m2
03:05 48.4 °F /  9.1 °C 16.0 °F /  -8.9 °C 29.83in /  1010hPa Calm     27% 0.00in /  0mm 0.0 W/m2
03:10 48.0 °F /  8.9 °C 15.6 °F /  -9.1 °C 29.83in /  1010hPa Calm     27% 0.00in /  0mm 0.0 W/m2
03:15 47.8 °F /  8.8 °C 15.4 °F /  -9.2 °C 29.83in /  1010hPa Calm     27% 0.00in /  0mm 0.0 W/m2
03:21 47.5 °F /  8.6 °C 16.0 °F /  -8.9 °C 29.83in /  1010hPa Calm     28% 0.00in /  0mm 0.0 W/m2
03:26 47.1 °F /  8.4 °C 15.6 °F /  -9.1 °C 29.83in /  1010hPa Calm     28% 0.00in /  0mm 0.0 W/m2
03:31 47.1 °F /  8.4 °C 15.6 °F /  -9.1 °C 29.83in /  1010hPa Calm     28% 0.00in /  0mm 0.0 W/m2
03:37 46.9 °F /  8.3 °C 15.4 °F /  -9.2 °C 29.83in /  1010hPa Calm     28% 0.00in /  0mm 0.0 W/m2
03:42 46.8 °F /  8.2 °C 15.4 °F /  -9.2 °C 29.83in /  1010hPa Calm     28% 0.00in /  0mm 0.0 W/m2
03:47 46.6 °F /  8.1 °C 16.0 °F /  -8.9 °C 29.83in /  1010hPa Calm     29% 0.00in /  0mm 0.0 W/m2
03:53 46.2 °F /  7.9 °C 15.6 °F /  -9.1 °C 29.83in /  1010hPa Calm     29% 0.00in /  0mm 0.0 W/m2
03:58 46.0 °F /  7.8 °C 14.7 °F /  -9.6 °C 29.83in /  1010hPa Calm     28% 0.00in /  0mm 0.0 W/m2
04:04 45.9 °F /  7.7 °C 15.4 °F /  -9.2 °C 29.83in /  1010hPa Calm     29% 0.00in /  0mm 0.0 W/m2
04:09 45.7 °F /  7.6 °C 15.3 °F /  -9.3 °C 29.83in /  1010hPa Calm     29% 0.00in /  0mm 0.0 W/m2
04:14 45.7 °F /  7.6 °C 15.3 °F /  -9.3 °C 29.83in /  1010hPa Calm     29% 0.00in /  0mm 0.0 W/m2
04:19 45.3 °F /  7.4 °C 14.9 °F /  -9.5 °C 29.83in /  1010hPa Calm     29% 0.00in /  0mm 0.0 W/m2
04:24 45.1 °F /  7.3 °C 14.7 °F /  -9.6 °C 29.83in /  1010hPa Calm     29% 0.00in /  0mm 0.0 W/m2
04:30 45.0 °F /  7.2 °C 15.4 °F /  -9.2 °C 29.83in /  1010hPa Calm     30% 0.00in /  0mm 0.0 W/m2
04:35 45.0 °F /  7.2 °C 14.5 °F /  -9.7 °C 29.83in /  1010hPa Calm     29% 0.00in /  0mm 0.0 W/m2
04:41 44.8 °F /  7.1 °C 15.3 °F /  -9.3 °C 29.83in /  1010hPa Calm     30% 0.00in /  0mm 0.0 W/m2
04:46 44.6 °F /  7 °C 15.1 °F /  -9.4 °C 29.83in /  1010hPa Calm     30% 0.00in /  0mm 0.0 W/m2
04:52 44.4 °F /  6.9 °C 14.2 °F /  -9.9 °C 29.83in /  1010hPa Calm     29% 0.00in /  0mm 0.0 W/m2
04:57 44.4 °F /  6.9 °C 14.2 °F /  -9.9 °C 29.83in /  1010hPa Calm     29% 0.00in /  0mm 0.0 W/m2
05:02 44.2 °F /  6.8 °C 14.7 °F /  -9.6 °C 29.83in /  1010hPa Calm     30% 0.00in /  0mm 0.0 W/m2
05:08 44.1 °F /  6.7 °C 14.5 °F /  -9.7 °C 29.83in /  1010hPa Calm     30% 0.00in /  0mm 0.0 W/m2
05:16 44.1 °F /  6.7 °C 13.8 °F /  -10.1 °C 29.83in /  1010hPa Calm     29% 0.00in /  0mm 0.0 W/m2
05:22 43.9 °F /  6.6 °C 13.6 °F /  -10.2 °C 29.84in /  1010.4hPa Calm     29% 0.00in /  0mm 0.0 W/m2
05:25 43.9 °F /  6.6 °C 13.6 °F /  -10.2 °C 29.84in /  1010.4hPa Calm     29% 0.00in /  0mm 0.0 W/m2
05:30 43.9 °F /  6.6 °C 14.4 °F /  -9.8 °C 29.84in /  1010.4hPa Calm     30% 0.00in /  0mm 0.0 W/m2
05:33 43.9 °F /  6.6 °C 15.3 °F /  -9.3 °C 29.84in /  1010.4hPa Calm     31% 0.00in /  0mm 0.0 W/m2
05:38 43.9 °F /  6.6 °C 14.4 °F /  -9.8 °C 29.84in /  1010.4hPa Calm     30% 0.00in /  0mm 0.0 W/m2
05:48 43.5 °F /  6.4 °C 14.9 °F /  -9.5 °C 29.84in /  1010.4hPa Calm     31% 0.00in /  0mm 0.0 W/m2
05:53 43.5 °F /  6.4 °C 14.9 °F /  -9.5 °C 29.84in /  1010.4hPa Calm     31% 0.00in /  0mm 0.0 W/m2
05:58 43.3 °F /  6.3 °C 14.0 °F /  -10 °C 29.85in /  1010.7hPa Calm     30% 0.00in /  0mm 0.0 W/m2
06:03 43.3 °F /  6.3 °C 14.7 °F /  -9.6 °C 29.85in /  1010.7hPa Calm     31% 0.00in /  0mm 0.0 W/m2
06:08 43.3 °F /  6.3 °C 15.4 °F /  -9.2 °C 29.85in /  1010.7hPa Calm     32% 0.00in /  0mm 0.0 W/m2
06:13 43.2 °F /  6.2 °C 14.5 °F /  -9.7 °C 29.85in /  1010.7hPa Calm     31% 0.00in /  0mm 0.0 W/m2
06:18 43.2 °F /  6.2 °C 13.8 °F /  -10.1 °C 29.85in /  1010.7hPa Calm     30% 0.00in /  0mm 0.0 W/m2
06:23 43.0 °F /  6.1 °C 14.4 °F /  -9.8 °C 29.85in /  1010.7hPa Calm     31% 0.00in /  0mm 0.0 W/m2
06:28 43.0 °F /  6.1 °C 13.6 °F /  -10.2 °C 29.85in /  1010.7hPa Calm     30% 0.00in /  0mm 5.0 W/m2
06:33 42.6 °F /  5.9 °C 14.0 °F /  -10 °C 29.85in /  1010.7hPa Calm     31% 0.00in /  0mm 7.0 W/m2
06:38 42.4 °F /  5.8 °C 14.0 °F /  -10 °C 29.85in /  1010.7hPa Calm     31% 0.00in /  0mm 9.0 W/m2
06:44 42.4 °F /  5.8 °C 14.7 °F /  -9.6 °C 29.86in /  1011.1hPa Calm     32% 0.00in /  0mm 11.0 W/m2
06:49 42.3 °F /  5.7 °C 14.5 °F /  -9.7 °C 29.86in /  1011.1hPa Calm     32% 0.00in /  0mm 11.0 W/m2
06:54 42.3 °F /  5.7 °C 14.5 °F /  -9.7 °C 29.86in /  1011.1hPa Calm     32% 0.00in /  0mm 12.0 W/m2
06:59 42.4 °F /  5.8 °C 14.0 °F /  -10 °C 29.87in /  1011.4hPa Calm   1.0mph /  1.6km/h 31% 0.00in /  0mm 14.0 W/m2
07:04 42.8 °F /  6 °C 14.2 °F /  -9.9 °C 29.87in /  1011.4hPa Calm     31% 0.00in /  0mm 16.0 W/m2
07:09 43.2 °F /  6.2 °C 13.8 °F /  -10.1 °C 29.87in /  1011.4hPa Calm   2.0mph /  3.2km/h 30% 0.00in /  0mm 16.0 W/m2
07:14 43.9 °F /  6.6 °C 14.4 °F /  -9.8 °C 29.87in /  1011.4hPa Calm   1.0mph /  1.6km/h 30% 0.00in /  0mm 18.0 W/m2
07:19 44.4 °F /  6.9 °C 14.9 °F /  -9.5 °C 29.87in /  1011.4hPa Calm     30% 0.00in /  0mm 18.0 W/m2
07:25 45.1 °F /  7.3 °C 15.6 °F /  -9.1 °C 29.87in /  1011.4hPa Calm   1.0mph /  1.6km/h 30% 0.00in /  0mm 19.0 W/m2
07:30 46.2 °F /  7.9 °C 15.6 °F /  -9.1 °C 29.87in /  1011.4hPa SE 2.0mph /  3.2km/h 2.0mph /  3.2km/h 29% 0.00in /  0mm 25.0 W/m2
07:35 47.1 °F /  8.4 °C 14.9 °F /  -9.5 °C 29.87in /  1011.4hPa Calm   3.0mph /  4.8km/h 27% 0.00in /  0mm 33.0 W/m2
07:40 47.8 °F /  8.8 °C 15.4 °F /  -9.2 °C 29.88in /  1011.7hPa Calm   2.0mph /  3.2km/h 27% 0.00in /  0mm 37.0 W/m2
07:45 48.6 °F /  9.2 °C 15.3 °F /  -9.3 °C 29.87in /  1011.4hPa Calm     26% 0.00in /  0mm 35.0 W/m2
07:50 49.1 °F /  9.5 °C 15.6 °F /  -9.1 °C 29.87in /  1011.4hPa Calm   1.0mph /  1.6km/h 26% 0.00in /  0mm 54.0 W/m2
07:55 49.6 °F /  9.8 °C 15.3 °F /  -9.3 °C 29.87in /  1011.4hPa Calm     25% 0.00in /  0mm 26.0 W/m2
08:00 50.4 °F /  10.2 °C 15.8 °F /  -9 °C 29.87in /  1011.4hPa Calm     25% 0.00in /  0mm 26.0 W/m2
08:06 51.1 °F /  10.6 °C 15.4 °F /  -9.2 °C 29.88in /  1011.7hPa Calm     24% 0.00in /  0mm 32.0 W/m2
08:11 52.0 °F /  11.1 °C 16.3 °F /  -8.7 °C 29.87in /  1011.4hPa Calm   3.0mph /  4.8km/h 24% 0.00in /  0mm 26.0 W/m2
08:16 53.1 °F /  11.7 °C 16.2 °F /  -8.8 °C 29.87in /  1011.4hPa Calm   6.0mph /  9.7km/h 23% 0.00in /  0mm 26.0 W/m2
08:21 54.1 °F /  12.3 °C 16.2 °F /  -8.8 °C 29.87in /  1011.4hPa SE 2.9mph /  4.7km/h 7.0mph /  11.3km/h 22% 0.00in /  0mm 28.0 W/m2
08:26 55.0 °F /  12.8 °C 15.8 °F /  -9 °C 29.87in /  1011.4hPa South 0.9mph /  1.4km/h 3.0mph /  4.8km/h 21% 0.00in /  0mm 100.0 W/m2
08:31 55.6 °F /  13.1 °C 15.1 °F /  -9.4 °C 29.87in /  1011.4hPa Calm   1.0mph /  1.6km/h 20% 0.00in /  0mm 499.0 W/m2
08:36 55.9 °F /  13.3 °C 15.4 °F /  -9.2 °C 29.87in /  1011.4hPa Calm     20% 0.00in /  0mm 519.0 W/m2
08:41 56.3 °F /  13.5 °C 15.8 °F /  -9 °C 29.87in /  1011.4hPa Calm   3.0mph /  4.8km/h 20% 0.00in /  0mm 540.0 W/m2
08:47 57.0 °F /  13.9 °C 15.1 °F /  -9.4 °C 29.87in /  1011.4hPa Calm   6.0mph /  9.7km/h 19% 0.00in /  0mm 559.0 W/m2
08:52 57.7 °F /  14.3 °C 15.8 °F /  -9 °C 29.87in /  1011.4hPa Calm   3.0mph /  4.8km/h 19% 0.00in /  0mm 578.0 W/m2
08:57 58.3 °F /  14.6 °C 16.2 °F /  -8.8 °C 29.87in /  1011.4hPa SE 0.9mph /  1.4km/h 4.0mph /  6.4km/h 19% 0.00in /  0mm 598.0 W/m2
09:02 58.6 °F /  14.8 °C 15.3 °F /  -9.3 °C 29.87in /  1011.4hPa NE 4.9mph /  7.9km/h 5.0mph /  8km/h 18% 0.00in /  0mm 617.0 W/m2
09:07 59.5 °F /  15.3 °C 14.7 °F /  -9.6 °C 29.87in /  1011.4hPa Calm   4.0mph /  6.4km/h 17% 0.00in /  0mm 636.0 W/m2
09:12 60.4 °F /  15.8 °C 16.7 °F /  -8.5 °C 29.88in /  1011.7hPa ENE 2.0mph /  3.2km/h 9.0mph /  14.5km/h 18% 0.00in /  0mm 652.0 W/m2
09:17 61.5 °F /  16.4 °C 16.3 °F /  -8.7 °C 29.88in /  1011.7hPa NE 2.9mph /  4.7km/h 8.0mph /  12.9km/h 17% 0.00in /  0mm 670.0 W/m2
09:23 62.2 °F /  16.8 °C 15.4 °F /  -9.2 °C 29.88in /  1011.7hPa NE 2.9mph /  4.7km/h 8.0mph /  12.9km/h 16% 0.00in /  0mm 687.0 W/m2
09:28 62.8 °F /  17.1 °C 16.0 °F /  -8.9 °C 29.88in /  1011.7hPa ENE 4.0mph /  6.4km/h 8.0mph /  12.9km/h 16% 0.00in /  0mm 703.0 W/m2
09:33 63.0 °F /  17.2 °C 17.4 °F /  -8.1 °C 29.88in /  1011.7hPa ENE 0.9mph /  1.4km/h 9.0mph /  14.5km/h 17% 0.00in /  0mm 721.0 W/m2
09:43 64.0 °F /  17.8 °C 18.3 °F /  -7.6 °C 29.88in /  1011.7hPa North 0.9mph /  1.4km/h 7.0mph /  11.3km/h 17% 0.00in /  0mm 754.0 W/m2
09:48 64.8 °F /  18.2 °C 16.0 °F /  -8.9 °C 29.88in /  1011.7hPa Calm   8.0mph /  12.9km/h 15% 0.00in /  0mm 770.0 W/m2
09:58 65.5 °F /  18.6 °C 16.5 °F /  -8.6 °C 29.87in /  1011.4hPa NE 2.9mph /  4.7km/h 8.0mph /  12.9km/h 15% 0.00in /  0mm 800.0 W/m2
10:03 65.7 °F /  18.7 °C 16.7 °F /  -8.5 °C 29.88in /  1011.7hPa North 0.9mph /  1.4km/h 7.0mph /  11.3km/h 15% 0.00in /  0mm 814.0 W/m2
10:09 66.2 °F /  19 °C 17.2 °F /  -8.2 °C 29.88in /  1011.7hPa Calm   5.0mph /  8km/h 15% 0.00in /  0mm 826.0 W/m2
10:14 66.9 °F /  19.4 °C 17.8 °F /  -7.9 °C 29.87in /  1011.4hPa Calm   11.0mph /  17.7km/h 15% 0.00in /  0mm 844.0 W/m2
10:19 67.5 °F /  19.7 °C 18.1 °F /  -7.7 °C 29.87in /  1011.4hPa Calm   6.0mph /  9.7km/h 15% 0.00in /  0mm 856.0 W/m2
10:24 67.8 °F /  19.9 °C 16.9 °F /  -8.4 °C 29.87in /  1011.4hPa NE 2.0mph /  3.2km/h 8.0mph /  12.9km/h 14% 0.00in /  0mm 868.0 W/m2
10:34 68.5 °F /  20.3 °C 17.4 °F /  -8.1 °C 29.87in /  1011.4hPa North 4.0mph /  6.4km/h 7.0mph /  11.3km/h 14% 0.00in /  0mm 895.0 W/m2
10:39 69.1 °F /  20.6 °C 18.0 °F /  -7.8 °C 29.87in /  1011.4hPa Calm   7.0mph /  11.3km/h 14% 0.00in /  0mm 905.0 W/m2
10:44 69.4 °F /  20.8 °C 18.1 °F /  -7.7 °C 29.87in /  1011.4hPa Calm   8.0mph /  12.9km/h 14% 0.00in /  0mm 918.0 W/m2
10:49 70.2 °F /  21.2 °C 18.7 °F /  -7.4 °C 29.87in /  1011.4hPa Calm   10.0mph /  16.1km/h 14% 0.00in /  0mm 928.0 W/m2
10:55 70.3 °F /  21.3 °C 17.2 °F /  -8.2 °C 29.87in /  1011.4hPa North 2.9mph /  4.7km/h 8.0mph /  12.9km/h 13% 0.00in /  0mm 935.0 W/m2
11:01 70.9 °F /  21.6 °C 17.6 °F /  -8 °C 29.87in /  1011.4hPa North 2.9mph /  4.7km/h 7.0mph /  11.3km/h 13% 0.00in /  0mm 947.0 W/m2
11:06 70.9 °F /  21.6 °C 17.6 °F /  -8 °C 29.87in /  1011.4hPa NE 4.9mph /  7.9km/h 8.0mph /  12.9km/h 13% 0.00in /  0mm 958.0 W/m2
11:11 71.2 °F /  21.8 °C 17.8 °F /  -7.9 °C 29.87in /  1011.4hPa ENE 2.9mph /  4.7km/h 8.0mph /  12.9km/h 13% 0.00in /  0mm 965.0 W/m2
11:16 71.4 °F /  21.9 °C 16.2 °F /  -8.8 °C 29.87in /  1011.4hPa Calm   3.0mph /  4.8km/h 12% 0.00in /  0mm 974.0 W/m2
11:21 71.8 °F /  22.1 °C 16.5 °F /  -8.6 °C 29.87in /  1011.4hPa NNW 4.0mph /  6.4km/h 7.0mph /  11.3km/h 12% 0.00in /  0mm 983.0 W/m2
11:26 72.1 °F /  22.3 °C 14.7 °F /  -9.6 °C 29.86in /  1011.1hPa NE 0.9mph /  1.4km/h 6.0mph /  9.7km/h 11% 0.00in /  0mm 988.0 W/m2
11:31 72.5 °F /  22.5 °C 15.1 °F /  -9.4 °C 29.86in /  1011.1hPa SE 0.9mph /  1.4km/h 5.0mph /  8km/h 11% 0.00in /  0mm 998.0 W/m2
11:36 72.5 °F /  22.5 °C 15.1 °F /  -9.4 °C 29.86in /  1011.1hPa SSE 0.9mph /  1.4km/h 4.0mph /  6.4km/h 11% 0.00in /  0mm 998.0 W/m2
11:41 72.7 °F /  22.6 °C 15.1 °F /  -9.4 °C 29.86in /  1011.1hPa SE 2.0mph /  3.2km/h 3.0mph /  4.8km/h 11% 0.00in /  0mm 1005.0 W/m2
11:47 73.2 °F /  22.9 °C 13.3 °F /  -10.4 °C 29.86in /  1011.1hPa NNW 0.9mph /  1.4km/h 8.0mph /  12.9km/h 10% 0.00in /  0mm 1013.0 W/m2
11:52 73.2 °F /  22.9 °C 13.3 °F /  -10.4 °C 29.85in /  1010.7hPa Calm   6.0mph /  9.7km/h 10% 0.00in /  0mm 1020.0 W/m2
11:57 73.2 °F /  22.9 °C 13.3 °F /  -10.4 °C 29.85in /  1010.7hPa Calm   1.0mph /  1.6km/h 10% 0.00in /  0mm 1023.0 W/m2
12:02 73.6 °F /  23.1 °C 11.3 °F /  -11.5 °C 29.85in /  1010.7hPa Calm   5.0mph /  8km/h 9% 0.00in /  0mm 1023.0 W/m2
12:07 73.8 °F /  23.2 °C 11.5 °F /  -11.4 °C 29.85in /  1010.7hPa Calm   5.0mph /  8km/h 9% 0.00in /  0mm 1028.0 W/m2
12:12 73.9 °F /  23.3 °C 11.5 °F /  -11.4 °C 29.85in /  1010.7hPa Calm     9% 0.00in /  0mm 1030.0 W/m2
12:23 74.5 °F /  23.6 °C 9.3 °F /  -12.6 °C 29.85in /  1010.7hPa East 2.0mph /  3.2km/h 6.0mph /  9.7km/h 8% 0.00in /  0mm 1035.0 W/m2
12:28 75.0 °F /  23.9 °C 9.7 °F /  -12.4 °C 29.84in /  1010.4hPa ESE 2.9mph /  4.7km/h 4.0mph /  6.4km/h 8% 0.00in /  0mm 1035.0 W/m2
12:33 75.4 °F /  24.1 °C 7.0 °F /  -13.9 °C 29.84in /  1010.4hPa Calm   5.0mph /  8km/h 7% 0.00in /  0mm 1034.0 W/m2
12:38 75.0 °F /  23.9 °C 9.7 °F /  -12.4 °C 29.84in /  1010.4hPa South 0.9mph /  1.4km/h 3.0mph /  4.8km/h 8% 0.00in /  0mm 1035.0 W/m2
12:44 74.8 °F /  23.8 °C 9.5 °F /  -12.5 °C 29.83in /  1010hPa SSW 2.0mph /  3.2km/h 4.0mph /  6.4km/h 8% 0.00in /  0mm 1034.0 W/m2
12:49 75.2 °F /  24 °C 9.9 °F /  -12.3 °C 29.83in /  1010hPa West 4.9mph /  7.9km/h 7.0mph /  11.3km/h 8% 0.00in /  0mm 1030.0 W/m2
12:54 75.2 °F /  24 °C 9.9 °F /  -12.3 °C 29.83in /  1010hPa Calm   4.0mph /  6.4km/h 8% 0.00in /  0mm 1030.0 W/m2
12:59 75.2 °F /  24 °C 6.8 °F /  -14 °C 29.83in /  1010hPa Calm   5.0mph /  8km/h 7% 0.00in /  0mm 1027.0 W/m2
13:04 74.8 °F /  23.8 °C 9.5 °F /  -12.5 °C 29.83in /  1010hPa WSW 0.9mph /  1.4km/h 5.0mph /  8km/h 8% 0.00in /  0mm 1025.0 W/m2
13:09 75.6 °F /  24.2 °C 10.0 °F /  -12.2 °C 29.83in /  1010hPa South 0.9mph /  1.4km/h 5.0mph /  8km/h 8% 0.00in /  0mm 1025.0 W/m2
13:14 76.5 °F /  24.7 °C 7.9 °F /  -13.4 °C 29.83in /  1010hPa Calm   5.0mph /  8km/h 7% 0.00in /  0mm 1016.0 W/m2
13:19 77.4 °F /  25.2 °C 8.4 °F /  -13.1 °C 29.82in /  1009.7hPa WSW 4.0mph /  6.4km/h 7.0mph /  11.3km/h 7% 0.00in /  0mm 1009.0 W/m2
13:25 77.4 °F /  25.2 °C 8.4 °F /  -13.1 °C 29.82in /  1009.7hPa Calm   4.0mph /  6.4km/h 7% 0.00in /  0mm 1004.0 W/m2
13:30 77.2 °F /  25.1 °C 8.2 °F /  -13.2 °C 29.82in /  1009.7hPa West 2.0mph /  3.2km/h 2.0mph /  3.2km/h 7% 0.00in /  0mm 997.0 W/m2
13:35 77.7 °F /  25.4 °C 8.8 °F /  -12.9 °C 29.81in /  1009.4hPa Calm   4.0mph /  6.4km/h 7% 0.00in /  0mm 988.0 W/m2
13:40 78.3 °F /  25.7 °C 5.7 °F /  -14.6 °C 29.81in /  1009.4hPa WSW 2.9mph /  4.7km/h 6.0mph /  9.7km/h 6% 0.00in /  0mm 988.0 W/m2
13:42 78.4 °F /  25.8 °C 5.9 °F /  -14.5 °C 29.81in /  1009.4hPa NNW 2.0mph /  3.2km/h 3.0mph /  4.8km/h 6% 0.00in /  0mm 977.0 W/m2
13:47 79.3 °F /  26.3 °C 6.4 °F /  -14.2 °C 29.81in /  1009.4hPa NNW 4.9mph /  7.9km/h 5.0mph /  8km/h 6% 0.00in /  0mm 972.0 W/m2
13:58 79.5 °F /  26.4 °C 2.7 °F /  -16.3 °C 29.80in /  1009hPa NNE 2.0mph /  3.2km/h 7.0mph /  11.3km/h 5% 0.00in /  0mm 954.0 W/m2
14:03 79.9 °F /  26.6 °C 2.8 °F /  -16.2 °C 29.80in /  1009hPa Calm   2.0mph /  3.2km/h 5% 0.00in /  0mm 951.0 W/m2
14:08 80.1 °F /  26.7 °C -1.7 °F /  -18.7 °C 29.80in /  1009hPa Calm   5.0mph /  8km/h 4% 0.00in /  0mm 933.0 W/m2
14:14 80.2 °F /  26.8 °C -1.7 °F /  -18.7 °C 29.80in /  1009hPa SW 4.0mph /  6.4km/h 7.0mph /  11.3km/h 4% 0.00in /  0mm 926.0 W/m2
14:19 79.9 °F /  26.6 °C -7.8 °F /  -22.1 °C 29.80in /  1009hPa WNW 0.9mph /  1.4km/h 4.0mph /  6.4km/h 3% 0.00in /  0mm 921.0 W/m2
14:24 80.2 °F /  26.8 °C -1.7 °F /  -18.7 °C 29.80in /  1009hPa WSW 2.0mph /  3.2km/h 6.0mph /  9.7km/h 4% 0.00in /  0mm 914.0 W/m2
14:29 80.8 °F /  27.1 °C -7.2 °F /  -21.8 °C 29.80in /  1009hPa WSW 4.0mph /  6.4km/h 7.0mph /  11.3km/h 3% 0.00in /  0mm 902.0 W/m2
14:34 80.8 °F /  27.1 °C -7.2 °F /  -21.8 °C 29.79in /  1008.7hPa West 4.9mph /  7.9km/h 6.0mph /  9.7km/h 3% 0.00in /  0mm 888.0 W/m2
14:39 81.0 °F /  27.2 °C -7.1 °F /  -21.7 °C 29.79in /  1008.7hPa Calm   4.0mph /  6.4km/h 3% 0.00in /  0mm 875.0 W/m2
14:44 81.3 °F /  27.4 °C -6.9 °F /  -21.6 °C 29.79in /  1008.7hPa WNW 4.9mph /  7.9km/h 6.0mph /  9.7km/h 3% 0.00in /  0mm 868.0 W/m2
14:49 81.9 °F /  27.7 °C -14.6 °F /  -25.9 °C 29.79in /  1008.7hPa Calm   3.0mph /  4.8km/h 2% 0.00in /  0mm 853.0 W/m2
14:55 81.9 °F /  27.7 °C -14.6 °F /  -25.9 °C 29.78in /  1008.4hPa Calm   1.0mph /  1.6km/h 2% 0.00in /  0mm 833.0 W/m2
15:00 82.0 °F /  27.8 °C -27.8 °F /  -33.2 °C 29.78in /  1008.4hPa Calm   6.0mph /  9.7km/h 1% 0.00in /  0mm 826.0 W/m2
15:05 82.2 °F /  27.9 °C -27.8 °F /  -33.2 °C 29.78in /  1008.4hPa NNE 2.0mph /  3.2km/h 6.0mph /  9.7km/h 1% 0.00in /  0mm 809.0 W/m2
15:10 82.2 °F /  27.9 °C -14.4 °F /  -25.8 °C 29.78in /  1008.4hPa NNW 4.9mph /  7.9km/h 5.0mph /  8km/h 2% 0.00in /  0mm 793.0 W/m2
15:15 82.4 °F /  28 °C -14.3 °F /  -25.7 °C 29.78in /  1008.4hPa NW 4.9mph /  7.9km/h 6.0mph /  9.7km/h 2% 0.00in /  0mm 777.0 W/m2
15:25 82.9 °F /  28.3 °C -14.1 °F /  -25.6 °C 29.77in /  1008hPa NNE 2.0mph /  3.2km/h 4.0mph /  6.4km/h 2% 0.00in /  0mm 744.0 W/m2
15:30 83.3 °F /  28.5 °C -13.7 °F /  -25.4 °C 29.77in /  1008hPa Calm   5.0mph /  8km/h 2% 0.00in /  0mm 728.0 W/m2
15:35 82.9 °F /  28.3 °C -14.1 °F /  -25.6 °C 29.76in /  1007.7hPa North 6.0mph /  9.7km/h 10.0mph /  16.1km/h 2% 0.00in /  0mm 712.0 W/m2
15:46 83.5 °F /  28.6 °C -5.4 °F /  -20.8 °C 29.76in /  1007.7hPa Calm   1.0mph /  1.6km/h 3% 0.00in /  0mm 679.0 W/m2
15:51 83.7 °F /  28.7 °C -5.3 °F /  -20.7 °C 29.76in /  1007.7hPa Calm   2.0mph /  3.2km/h 3% 0.00in /  0mm 664.0 W/m2
15:56 83.8 °F /  28.8 °C -13.4 °F /  -25.2 °C 29.76in /  1007.7hPa North 2.0mph /  3.2km/h 4.0mph /  6.4km/h 2% 0.00in /  0mm 643.0 W/m2
16:01 84.0 °F /  28.9 °C -5.1 °F /  -20.6 °C 29.76in /  1007.7hPa North 0.9mph /  1.4km/h 5.0mph /  8km/h 3% 0.00in /  0mm 629.0 W/m2
16:06 83.7 °F /  28.7 °C -5.3 °F /  -20.7 °C 29.75in /  1007.3hPa SE 0.9mph /  1.4km/h 3.0mph /  4.8km/h 3% 0.00in /  0mm 610.0 W/m2
16:11 83.8 °F /  28.8 °C -5.3 °F /  -20.7 °C 29.75in /  1007.3hPa North 2.0mph /  3.2km/h 8.0mph /  12.9km/h 3% 0.00in /  0mm 592.0 W/m2
16:16 83.7 °F /  28.7 °C -5.3 °F /  -20.7 °C 29.75in /  1007.3hPa Calm   4.0mph /  6.4km/h 3% 0.00in /  0mm 575.0 W/m2
16:22 84.0 °F /  28.9 °C -5.1 °F /  -20.6 °C 29.75in /  1007.3hPa Calm   2.0mph /  3.2km/h 3% 0.00in /  0mm 552.0 W/m2
16:27 84.4 °F /  29.1 °C -4.9 °F /  -20.5 °C 29.75in /  1007.3hPa WSW 2.0mph /  3.2km/h 2.0mph /  3.2km/h 3% 0.00in /  0mm 531.0 W/m2
16:33 84.7 °F /  29.3 °C -4.5 °F /  -20.3 °C 29.75in /  1007.3hPa Calm   4.0mph /  6.4km/h 3% 0.00in /  0mm 512.0 W/m2
16:38 84.9 °F /  29.4 °C -12.6 °F /  -24.8 °C 29.75in /  1007.3hPa NNW 2.9mph /  4.7km/h 4.0mph /  6.4km/h 2% 0.00in /  0mm 494.0 W/m2
16:43 84.6 °F /  29.2 °C -4.7 °F /  -20.4 °C 29.75in /  1007.3hPa Calm   2.0mph /  3.2km/h 3% 0.00in /  0mm 475.0 W/m2
16:48 84.6 °F /  29.2 °C -13.0 °F /  -25 °C 29.75in /  1007.3hPa SSE 2.0mph /  3.2km/h 4.0mph /  6.4km/h 2% 0.00in /  0mm 454.0 W/m2
16:53 84.4 °F /  29.1 °C -4.9 °F /  -20.5 °C 29.75in /  1007.3hPa North 2.0mph /  3.2km/h 4.0mph /  6.4km/h 3% 0.00in /  0mm 432.0 W/m2
16:58 83.8 °F /  28.8 °C -5.3 °F /  -20.7 °C 29.75in /  1007.3hPa Calm   4.0mph /  6.4km/h 3% 0.00in /  0mm 413.0 W/m2
17:03 83.5 °F /  28.6 °C -5.4 °F /  -20.8 °C 29.75in /  1007.3hPa Calm   1.0mph /  1.6km/h 3% 0.00in /  0mm 396.0 W/m2
17:08 83.8 °F /  28.8 °C -5.3 °F /  -20.7 °C 29.75in /  1007.3hPa Calm   4.0mph /  6.4km/h 3% 0.00in /  0mm 376.0 W/m2
17:13 83.7 °F /  28.7 °C -5.3 °F /  -20.7 °C 29.75in /  1007.3hPa North 2.9mph /  4.7km/h 6.0mph /  9.7km/h 3% 0.00in /  0mm 355.0 W/m2
17:19 83.1 °F /  28.4 °C -5.6 °F /  -20.9 °C 29.75in /  1007.3hPa NNE 2.0mph /  3.2km/h 2.0mph /  3.2km/h 3% 0.00in /  0mm 334.0 W/m2
17:24 82.8 °F /  28.2 °C -6.0 °F /  -21.1 °C 29.75in /  1007.3hPa East 0.9mph /  1.4km/h 2.0mph /  3.2km/h 3% 0.00in /  0mm 313.0 W/m2
17:35 83.5 °F /  28.6 °C -5.4 °F /  -20.8 °C 29.75in /  1007.3hPa Calm   4.0mph /  6.4km/h 3% 0.00in /  0mm 267.0 W/m2
17:40 83.3 °F /  28.5 °C -5.6 °F /  -20.9 °C 29.76in /  1007.7hPa NNW 0.9mph /  1.4km/h 1.0mph /  1.6km/h 3% 0.00in /  0mm 250.0 W/m2
17:45 83.1 °F /  28.4 °C -5.6 °F /  -20.9 °C 29.76in /  1007.7hPa Calm   4.0mph /  6.4km/h 3% 0.00in /  0mm 229.0 W/m2
17:50 82.9 °F /  28.3 °C -5.8 °F /  -21 °C 29.76in /  1007.7hPa NNW 0.9mph /  1.4km/h 4.0mph /  6.4km/h 3% 0.00in /  0mm 207.0 W/m2
17:55 82.9 °F /  28.3 °C -5.8 °F /  -21 °C 29.76in /  1007.7hPa Calm   2.0mph /  3.2km/h 3% 0.00in /  0mm 188.0 W/m2
18:00 83.5 °F /  28.6 °C -5.4 °F /  -20.8 °C 29.76in /  1007.7hPa West 0.9mph /  1.4km/h 4.0mph /  6.4km/h 3% 0.00in /  0mm 165.0 W/m2
18:05 83.3 °F /  28.5 °C -5.6 °F /  -20.9 °C 29.76in /  1007.7hPa Calm     3% 0.00in /  0mm 139.0 W/m2
18:10 82.9 °F /  28.3 °C -5.8 °F /  -21 °C 29.76in /  1007.7hPa NNW 0.9mph /  1.4km/h 4.0mph /  6.4km/h 3% 0.00in /  0mm 113.0 W/m2
18:15 82.6 °F /  28.1 °C -6.0 °F /  -21.1 °C 29.77in /  1008hPa NNW 0.9mph /  1.4km/h 3.0mph /  4.8km/h 3% 0.00in /  0mm 60.0 W/m2
18:21 82.0 °F /  27.8 °C -6.3 °F /  -21.3 °C 29.77in /  1008hPa Calm     3% 0.00in /  0mm 62.0 W/m2
18:26 81.7 °F /  27.6 °C -6.7 °F /  -21.5 °C 29.77in /  1008hPa Calm   3.0mph /  4.8km/h 3% 0.00in /  0mm 28.0 W/m2
18:31 81.0 °F /  27.2 °C -7.1 °F /  -21.7 °C 29.77in /  1008hPa Calm   1.0mph /  1.6km/h 3% 0.00in /  0mm 21.0 W/m2
18:36 80.2 °F /  26.8 °C -7.6 °F /  -22 °C 29.77in /  1008hPa Calm   3.0mph /  4.8km/h 3% 0.00in /  0mm 16.0 W/m2
18:41 79.5 °F /  26.4 °C -8.1 °F /  -22.3 °C 29.77in /  1008hPa Calm   2.0mph /  3.2km/h 3% 0.00in /  0mm 12.0 W/m2
18:46 79.0 °F /  26.1 °C -2.6 °F /  -19.2 °C 29.78in /  1008.4hPa Calm   4.0mph /  6.4km/h 4% 0.00in /  0mm 7.0 W/m2
18:51 78.1 °F /  25.6 °C -9.0 °F /  -22.8 °C 29.78in /  1008.4hPa Calm   1.0mph /  1.6km/h 3% 0.00in /  0mm 5.0 W/m2
18:56 77.4 °F /  25.2 °C -3.6 °F /  -19.8 °C 29.78in /  1008.4hPa Calm   2.0mph /  3.2km/h 4% 0.00in /  0mm 0.0 W/m2
19:01 76.6 °F /  24.8 °C -4.0 °F /  -20 °C 29.78in /  1008.4hPa Calm   1.0mph /  1.6km/h 4% 0.00in /  0mm 0.0 W/m2
19:06 76.1 °F /  24.5 °C -4.5 °F /  -20.3 °C 29.78in /  1008.4hPa Calm     4% 0.00in /  0mm 0.0 W/m2
19:12 75.6 °F /  24.2 °C -0.2 °F /  -17.9 °C 29.78in /  1008.4hPa Calm     5% 0.00in /  0mm 0.0 W/m2
19:13 75.6 °F /  24.2 °C -0.2 °F /  -17.9 °C 29.79in /  1008.7hPa Calm     5% 0.00in /  0mm 0.0 W/m2
19:23 73.9 °F /  23.3 °C 9.0 °F /  -12.8 °C 29.79in /  1008.7hPa Calm     8% 0.00in /  0mm 0.0 W/m2
19:28 73.4 °F /  23 °C 11.1 °F /  -11.6 °C 29.79in /  1008.7hPa Calm     9% 0.00in /  0mm 0.0 W/m2
19:32 72.9 °F /  22.7 °C 13.1 °F /  -10.5 °C 29.80in /  1009hPa Calm     10% 0.00in /  0mm 0.0 W/m2
19:37 72.3 °F /  22.4 °C 12.7 °F /  -10.7 °C 29.80in /  1009hPa Calm   1.0mph /  1.6km/h 10% 0.00in /  0mm 0.0 W/m2
19:42 72.0 °F /  22.2 °C 12.4 °F /  -10.9 °C 29.80in /  1009hPa Calm     10% 0.00in /  0mm 0.0 W/m2
19:47 71.6 °F /  22 °C 14.4 °F /  -9.8 °C 29.80in /  1009hPa Calm     11% 0.00in /  0mm 0.0 W/m2
19:52 71.1 °F /  21.7 °C 13.8 °F /  -10.1 °C 29.80in /  1009hPa Calm   2.0mph /  3.2km/h 11% 0.00in /  0mm 0.0 W/m2
19:58 70.9 °F /  21.6 °C 13.8 °F /  -10.1 °C 29.81in /  1009.4hPa Calm     11% 0.00in /  0mm 0.0 W/m2
20:03 70.3 °F /  21.3 °C 13.3 °F /  -10.4 °C 29.81in /  1009.4hPa Calm   1.0mph /  1.6km/h 11% 0.00in /  0mm 0.0 W/m2
20:08 70.3 °F /  21.3 °C 13.3 °F /  -10.4 °C 29.81in /  1009.4hPa Calm   3.0mph /  4.8km/h 11% 0.00in /  0mm 0.0 W/m2
20:13 70.0 °F /  21.1 °C 15.1 °F /  -9.4 °C 29.81in /  1009.4hPa Calm     12% 0.00in /  0mm 0.0 W/m2
20:18 69.6 °F /  20.9 °C 14.7 °F /  -9.6 °C 29.81in /  1009.4hPa Calm     12% 0.00in /  0mm 0.0 W/m2
20:23 69.3 °F /  20.7 °C 14.5 °F /  -9.7 °C 29.81in /  1009.4hPa Calm     12% 0.00in /  0mm 0.0 W/m2
20:28 68.5 °F /  20.3 °C 15.8 °F /  -9 °C 29.81in /  1009.4hPa Calm     13% 0.00in /  0mm 0.0 W/m2
20:33 68.2 °F /  20.1 °C 13.6 °F /  -10.2 °C 29.82in /  1009.7hPa Calm     12% 0.00in /  0mm 0.0 W/m2
20:38 67.6 °F /  19.8 °C 15.1 °F /  -9.4 °C 29.82in /  1009.7hPa Calm     13% 0.00in /  0mm 0.0 W/m2
20:43 66.9 °F /  19.4 °C 14.5 °F /  -9.7 °C 29.82in /  1009.7hPa Calm     13% 0.00in /  0mm 0.0 W/m2
20:49 66.4 °F /  19.1 °C 14.0 °F /  -10 °C 29.82in /  1009.7hPa Calm     13% 0.00in /  0mm 0.0 W/m2
20:54 65.8 °F /  18.8 °C 13.6 °F /  -10.2 °C 29.83in /  1010hPa Calm     13% 0.00in /  0mm 0.0 W/m2
21:04 65.1 °F /  18.4 °C 13.1 °F /  -10.5 °C 29.83in /  1010hPa Calm     13% 0.00in /  0mm 0.0 W/m2
21:09 64.8 °F /  18.2 °C 14.4 °F /  -9.8 °C 29.83in /  1010hPa Calm     14% 0.00in /  0mm 0.0 W/m2
21:14 64.2 °F /  17.9 °C 14.0 °F /  -10 °C 29.83in /  1010hPa Calm     14% 0.00in /  0mm 0.0 W/m2
21:19 63.9 °F /  17.7 °C 12.0 °F /  -11.1 °C 29.83in /  1010hPa Calm   2.0mph /  3.2km/h 13% 0.00in /  0mm 0.0 W/m2
21:24 64.0 °F /  17.8 °C 12.2 °F /  -11 °C 29.83in /  1010hPa Calm     13% 0.00in /  0mm 0.0 W/m2
21:30 64.0 °F /  17.8 °C 13.8 °F /  -10.1 °C 29.83in /  1010hPa Calm     14% 0.00in /  0mm 0.0 W/m2
21:35 64.0 °F /  17.8 °C 13.8 °F /  -10.1 °C 29.83in /  1010hPa Calm     14% 0.00in /  0mm 0.0 W/m2
21:40 63.9 °F /  17.7 °C 13.6 °F /  -10.2 °C 29.83in /  1010hPa Calm     14% 0.00in /  0mm 0.0 W/m2
21:50 63.0 °F /  17.2 °C 12.9 °F /  -10.6 °C 29.84in /  1010.4hPa Calm     14% 0.00in /  0mm 0.0 W/m2
21:55 62.8 °F /  17.1 °C 12.9 °F /  -10.6 °C 29.84in /  1010.4hPa Calm     14% 0.00in /  0mm 0.0 W/m2
22:00 62.2 °F /  16.8 °C 14.0 °F /  -10 °C 29.84in /  1010.4hPa Calm   1.0mph /  1.6km/h 15% 0.00in /  0mm 0.0 W/m2
22:05 62.1 °F /  16.7 °C 13.8 °F /  -10.1 °C 29.84in /  1010.4hPa Calm     15% 0.00in /  0mm 0.0 W/m2
22:10 61.5 °F /  16.4 °C 13.5 °F /  -10.3 °C 29.84in /  1010.4hPa Calm     15% 0.00in /  0mm 0.0 W/m2
22:15 61.2 °F /  16.2 °C 13.1 °F /  -10.5 °C 29.84in /  1010.4hPa Calm     15% 0.00in /  0mm 0.0 W/m2
22:21 60.8 °F /  16 °C 14.4 °F /  -9.8 °C 29.84in /  1010.4hPa Calm     16% 0.00in /  0mm 0.0 W/m2
22:26 60.4 °F /  15.8 °C 12.6 °F /  -10.8 °C 29.84in /  1010.4hPa ESE 2.0mph /  3.2km/h 2.0mph /  3.2km/h 15% 0.00in /  0mm 0.0 W/m2
22:31 60.3 °F /  15.7 °C 12.4 °F /  -10.9 °C 29.84in /  1010.4hPa ENE 0.9mph /  1.4km/h 1.0mph /  1.6km/h 15% 0.00in /  0mm 0.0 W/m2
22:36 60.1 °F /  15.6 °C 13.6 °F /  -10.2 °C 29.84in /  1010.4hPa Calm     16% 0.00in /  0mm 0.0 W/m2
22:41 60.1 °F /  15.6 °C 13.6 °F /  -10.2 °C 29.85in /  1010.7hPa Calm     16% 0.00in /  0mm 0.0 W/m2
22:46 60.1 °F /  15.6 °C 13.6 °F /  -10.2 °C 29.85in /  1010.7hPa Calm     16% 0.00in /  0mm 0.0 W/m2
22:51 59.9 °F /  15.5 °C 13.6 °F /  -10.2 °C 29.85in /  1010.7hPa Calm     16% 0.00in /  0mm 0.0 W/m2
22:56 59.7 °F /  15.4 °C 13.5 °F /  -10.3 °C 29.85in /  1010.7hPa Calm   1.0mph /  1.6km/h 16% 0.00in /  0mm 0.0 W/m2
23:01 59.7 °F /  15.4 °C 13.5 °F /  -10.3 °C 29.85in /  1010.7hPa Calm   1.0mph /  1.6km/h 16% 0.00in /  0mm 0.0 W/m2
23:06 59.5 °F /  15.3 °C 13.3 °F /  -10.4 °C 29.85in /  1010.7hPa Calm   2.0mph /  3.2km/h 16% 0.00in /  0mm 0.0 W/m2
23:12 59.5 °F /  15.3 °C 13.3 °F /  -10.4 °C 29.85in /  1010.7hPa Calm   2.0mph /  3.2km/h 16% 0.00in /  0mm 0.0 W/m2
23:22 59.5 °F /  15.3 °C 13.3 °F /  -10.4 °C 29.85in /  1010.7hPa Calm   1.0mph /  1.6km/h 16% 0.00in /  0mm 0.0 W/m2
23:27 59.4 °F /  15.2 °C 13.1 °F /  -10.5 °C 29.85in /  1010.7hPa Calm     16% 0.00in /  0mm 0.0 W/m2
23:32 59.2 °F /  15.1 °C 12.9 °F /  -10.6 °C 29.85in /  1010.7hPa Calm     16% 0.00in /  0mm 0.0 W/m2
23:37 58.8 °F /  14.9 °C 12.7 °F /  -10.7 °C 29.84in /  1010.4hPa Calm     16% 0.00in /  0mm 0.0 W/m2
23:42 58.6 °F /  14.8 °C 12.6 °F /  -10.8 °C 29.85in /  1010.7hPa Calm     16% 0.00in /  0mm 0.0 W/m2
23:47 58.5 °F /  14.7 °C 12.4 °F /  -10.9 °C 29.85in /  1010.7hPa Calm     16% 0.00in /  0mm 0.0 W/m2
23:53 58.3 °F /  14.6 °C 13.6 °F /  -10.2 °C 29.85in /  1010.7hPa Calm     17% 0.00in /  0mm 0.0 W/m2
23:58 57.9 °F /  14.4 °C 13.3 °F /  -10.4 °C 29.84in /  1010.4hPa Calm     17% 0.00in /  0mm 0.0 W/m2
Olympia, Windhoek, Namibia
Compliments of Weather Underground - 3.25 mb